Time;durP1;ratioP1;P1;durP2;ratioP2;P2;SDS_P1;SDS_P2;PMS_P1;PMS_P2;Temp;Humidity;BMP_temperature;BMP_pressure;BME280_temperature;BME280_humidity;BME280_pressure;Samples;Min_cycle;Max_cycle;Signal;HPM_P1;HPM_P2
2022/04/07 00:00:15;;;;;;;;;;;;;;;8.40;100.00;94464.06;1035025;28;20639;-69
2022/04/07 00:00:46;;;;;;;;;;;;;;;8.39;100.00;94461.75;1035208;28;19964;-70
2022/04/07 00:01:19;;;;;;;;;;;;;;;8.48;100.00;94462.66;1030471;28;19925;-71
2022/04/07 00:01:49;;;;;;;;;;;;;;;8.27;100.00;94428.91;1030445;28;19917;-72
2022/04/07 00:02:20;;;;;;;;;;;;;;;8.49;100.00;94456.38;1030717;28;19929;-71
2022/04/07 00:02:50;;;;;;;;;;;;;;;8.50;100.00;94463.94;1027607;28;19946;-70
2022/04/07 00:03:20;;;;;;;;;;;;;;;8.52;100.00;94461.06;1034779;28;19928;-70
2022/04/07 00:03:52;;;;;;;;;;;;;;;8.54;100.00;94461.53;1022522;28;20380;-70
2022/04/07 00:04:22;;;;;;;;;;;;;;;8.55;100.00;94462.31;1027019;28;19978;-71
2022/04/07 00:04:52;;;;;;;;;;;;;;;8.54;100.00;94458.16;1024840;28;19977;-69
2022/04/07 00:05:23;;;;;;;;;;;;;;;8.53;100.00;94457.38;1022668;28;19922;-69
2022/04/07 00:05:53;;;;;;;;;;;;;;;8.54;100.00;94456.31;1022713;29;19922;-70
2022/04/07 00:06:23;;;;;;;;;;;;;;;8.56;100.00;94456.03;1022780;28;19923;-70
2022/04/07 00:06:54;;;;;;;;;;;;;;;8.60;100.00;94451.81;1030898;28;19918;-73
2022/04/07 00:07:24;;;;;;;;;;;;;;;8.59;100.00;94458.88;1034848;28;20501;-71
2022/04/07 00:07:54;;;;;;;;;;;;;;;8.56;100.00;94451.59;1030537;28;20403;-70
2022/04/07 00:08:25;;;;;;;;;;;;;;;8.55;100.00;94454.47;1030804;28;19922;-72
2022/04/07 00:08:55;;;;;;;;;;;;;;;8.54;100.00;94453.69;1030093;28;19921;-69
2022/04/07 00:09:25;;;;;;;;;;;;;;;8.54;100.00;94451.06;1034912;28;19932;-71
2022/04/07 00:09:55;;;;;;;;;;;;;;;8.52;100.00;94447.19;1030665;28;19921;-70
2022/04/07 00:10:26;;;;;;;;;;;;;;;8.52;100.00;94447.97;1022285;28;20257;-72
2022/04/07 00:10:59;;;;;;;;;;;;;;;8.50;100.00;94450.09;1023207;28;19942;-70
2022/04/07 00:11:29;;;;;;;;;;;;;;;8.52;100.00;94450.59;1027277;28;19945;-68
2022/04/07 00:12:03;;;;;;;;;;;;;;;8.55;100.00;94449.25;1027326;28;20366;-72
2022/04/07 00:12:34;;;;;;;;;;;;;;;8.54;100.00;94447.69;1030718;28;19914;-70
2022/04/07 00:13:04;;;;;;;;;;;;;;;8.50;100.00;94450.88;1026681;28;19925;-69
2022/04/07 00:13:35;;;;;;;;;;;;;;;8.30;100.00;94411.09;1023235;28;19995;-72
2022/04/07 00:14:06;;;;;;;;;;;;;;;8.48;100.00;94447.78;1027376;28;19906;-70
2022/04/07 00:14:39;;;;;;;;;;;;;;;8.49;100.00;94451.16;1027263;28;20473;-70
2022/04/07 00:15:10;;;;;;;;;;;;;;;8.48;100.00;94449.59;1031363;28;19918;-72
2022/04/07 00:15:41;;;;;;;;;;;;;;;8.44;100.00;94444.13;1033917;28;19945;-69
2022/04/07 00:16:11;;;;;;;;;;;;;;;8.47;100.00;94453.25;1035273;28;19992;-70
2022/04/07 00:16:41;;;;;;;;;;;;;;;8.48;100.00;94441.75;1034137;28;20393;-68
2022/04/07 00:17:12;;;;;;;;;;;;;;;8.48;100.00;94450.38;1032155;28;20223;-69
2022/04/07 00:17:42;;;;;;;;;;;;;;;8.48;100.00;94449.59;1034811;28;19920;-70
2022/04/07 00:18:12;;;;;;;;;;;;;;;8.49;100.00;94446.69;1030772;28;19920;-70
2022/04/07 00:18:42;;;;;;;;;;;;;;;8.48;100.00;94447.78;1030795;28;19968;-71
2022/04/07 00:19:13;;;;;;;;;;;;;;;8.48;100.00;94449.59;1038898;28;19952;-72
2022/04/07 00:19:43;;;;;;;;;;;;;;;8.48;100.00;94439.94;1034871;28;20398;-70
2022/04/07 00:20:14;;;;;;;;;;;;;;;8.47;100.00;94450.66;1034908;28;19936;-71
2022/04/07 00:20:44;;;;;;;;;;;;;;;8.47;100.00;94446.19;1035547;28;20377;-71
2022/04/07 00:21:24;;;;;;;;;;;;;;;8.49;100.00;94443.31;1030722;28;19914;-71
2022/04/07 00:21:57;;;;;;;;;;;;;;;8.45;100.00;94439.69;1030740;28;19910;-69
2022/04/07 00:22:27;;;;;;;;;;;;;;;8.42;100.00;94446.28;1029450;28;20303;-69
2022/04/07 00:22:57;;;;;;;;;;;;;;;8.47;100.00;94440.19;1032285;28;19952;-71
2022/04/07 00:23:28;;;;;;;;;;;;;;;8.47;100.00;94440.19;1036527;28;19921;-70
2022/04/07 00:23:58;;;;;;;;;;;;;;;8.42;100.00;94440.28;1038747;28;19955;-71
2022/04/07 00:24:28;;;;;;;;;;;;;;;8.43;100.00;94444.44;1038394;28;19923;-71
2022/04/07 00:24:59;;;;;;;;;;;;;;;8.43;100.00;94447.03;1038441;28;19928;-71
2022/04/07 00:25:30;;;;;;;;;;;;;;;8.40;100.00;94434.53;1038761;28;19927;-67
2022/04/07 00:26:00;;;;;;;;;;;;;;;8.36;100.00;94444.75;1037278;28;19921;-70
2022/04/07 00:26:30;;;;;;;;;;;;;;;8.34;100.00;94438.22;1035552;28;20377;-70
2022/04/07 00:27:01;;;;;;;;;;;;;;;8.34;100.00;94438.22;1038054;28;20000;-71
2022/04/07 00:27:31;;;;;;;;;;;;;;;8.34;100.00;94438.22;1038738;28;19967;-70
2022/04/07 00:28:01;;;;;;;;;;;;;;;8.32;100.00;94430.69;1038923;28;19976;-70
2022/04/07 00:28:32;;;;;;;;;;;;;;;8.31;100.00;94434.34;1038884;28;19923;-70
2022/04/07 00:29:02;;;;;;;;;;;;;;;8.32;100.00;94435.13;1038602;28;19952;-69
2022/04/07 00:29:33;;;;;;;;;;;;;;;8.33;100.00;94436.69;1039022;28;20426;-71
2022/04/07 00:30:04;;;;;;;;;;;;;;;8.32;100.00;94435.13;1038889;28;19916;-69
2022/04/07 00:30:37;;;;;;;;;;;;;;;8.30;100.00;94435.41;1034844;28;19914;-71
2022/04/07 00:31:07;;;;;;;;;;;;;;;8.08;100.00;94395.94;1030662;28;19917;-71
2022/04/07 00:31:40;;;;;;;;;;;;;;;8.32;100.00;94429.91;1030708;28;20395;-69
2022/04/07 00:32:10;;;;;;;;;;;;;;;8.34;100.00;94438.22;1031263;28;19914;-70
2022/04/07 00:32:41;;;;;;;;;;;;;;;8.33;100.00;94428.84;1035360;28;19920;-72
2022/04/07 00:33:12;;;;;;;;;;;;;;;8.33;100.00;94436.69;1034642;28;19917;-69
2022/04/07 00:33:42;;;;;;;;;;;;;;;8.32;100.00;94435.13;1034858;28;19956;-70
2022/04/07 00:34:12;;;;;;;;;;;;;;;8.35;100.00;94429.31;1038880;28;19963;-72
2022/04/07 00:34:46;;;;;;;;;;;;;;;8.34;100.00;94438.22;1038825;28;19987;-70
2022/04/07 00:35:16;;;;;;;;;;;;;;;8.34;100.00;94433.00;1035048;28;20402;-69
2022/04/07 00:35:46;;;;;;;;;;;;;;;8.32;100.00;94427.31;1034745;28;19909;-70
2022/04/07 00:36:17;;;;;;;;;;;;;;;8.35;100.00;94435.34;1030836;28;19918;-71
2022/04/07 00:36:47;;;;;;;;;;;;;;;8.33;100.00;94428.84;1025974;28;19921;-69
2022/04/07 00:37:17;;;;;;;;;;;;;;;8.32;100.00;94429.91;1030722;28;19929;-67
2022/04/07 00:37:50;;;;;;;;;;;;;;;8.32;100.00;94432.53;1034057;28;19924;-71
2022/04/07 00:38:24;;;;;;;;;;;;;;;8.31;100.00;94429.13;1035162;28;20419;-69
2022/04/07 00:38:54;;;;;;;;;;;;;;;8.30;100.00;94424.19;1034738;28;19917;-70
2022/04/07 00:39:24;;;;;;;;;;;;;;;8.29;100.00;94430.47;1034644;28;19921;-69
2022/04/07 00:39:54;;;;;;;;;;;;;;;8.30;100.00;94432.78;1031398;28;19937;-70
2022/04/07 00:40:25;;;;;;;;;;;;;;;8.31;100.00;94423.09;1034862;28;19917;-71
2022/04/07 00:40:55;;;;;;;;;;;;;;;8.30;100.00;94426.78;1038708;28;19917;-70
2022/04/07 00:41:25;;;;;;;;;;;;;;;8.28;100.00;94424.44;1038144;28;19913;-69
2022/04/07 00:41:56;;;;;;;;;;;;;;;8.27;100.00;94426.28;1035163;28;20638;-68
2022/04/07 00:42:26;;;;;;;;;;;;;;;8.30;100.00;94435.41;1035104;28;19913;-69
2022/04/07 00:42:56;;;;;;;;;;;;;;;8.30;100.00;94426.78;1038318;28;19921;-70
2022/04/07 00:43:30;;;;;;;;;;;;;;;8.29;100.00;94428.63;1038793;28;19916;-71
2022/04/07 00:44:00;;;;;;;;;;;;;;;8.26;100.00;94426.56;1030791;28;19913;-69
2022/04/07 00:44:30;;;;;;;;;;;;;;;8.26;100.00;94427.34;1031385;28;22089;-70
2022/04/07 00:45:01;;;;;;;;;;;;;;;8.24;100.00;94423.44;1034760;28;20000;-73
2022/04/07 00:45:31;;;;;;;;;;;;;;;8.22;100.00;94422.97;1030776;28;20323;-70
2022/04/07 00:46:04;;;;;;;;;;;;;;;8.21;100.00;94424.00;1034803;28;19973;-70
2022/04/07 00:46:35;;;;;;;;;;;;;;;8.24;100.00;94429.44;1031183;28;19918;-71
2022/04/07 00:47:06;;;;;;;;;;;;;;;8.29;100.00;94430.47;1030709;28;20001;-71
2022/04/07 00:47:36;;;;;;;;;;;;;;;8.26;100.00;94429.19;1034655;28;19924;-69
2022/04/07 00:48:06;;;;;;;;;;;;;;;8.26;100.00;94434.41;1035001;28;20023;-71
2022/04/07 00:48:37;;;;;;;;;;;;;;;8.25;100.00;94431.03;1035379;28;20016;-72
2022/04/07 00:49:07;;;;;;;;;;;;;;;8.27;100.00;94433.34;1038723;28;19913;-72
2022/04/07 00:49:37;;;;;;;;;;;;;;;8.24;100.00;94429.44;1037025;28;19925;-70
2022/04/07 00:50:08;;;;;;;;;;;;;;;8.25;100.00;94431.03;1038942;28;19948;-69
2022/04/07 00:50:39;;;;;;;;;;;;;;;8.24;100.00;94434.69;1038771;28;20293;-70
2022/04/07 00:51:09;;;;;;;;;;;;;;;8.24;100.00;94439.13;1034996;28;20393;-71
2022/04/07 00:51:40;;;;;;;;;;;;;;;8.24;100.00;94436.50;1034512;28;19921;-70
2022/04/07 00:52:10;;;;;;;;;;;;;;;8.23;100.00;94430.50;1034695;28;20015;-69
2022/04/07 00:52:41;;;;;;;;;;;;;;;8.19;100.00;94424.31;1035101;28;20579;-71
2022/04/07 00:53:11;;;;;;;;;;;;;;;8.15;100.00;94428.53;1031227;28;20004;-71
2022/04/07 00:53:42;;;;;;;;;;;;;;;8.09;100.00;94432.25;1033637;28;20287;-72
2022/04/07 00:54:12;;;;;;;;;;;;;;;8.05;100.00;94431.25;1027812;28;20025;-70
2022/04/07 00:54:43;;;;;;;;;;;;;;;8.03;100.00;94428.13;1028913;28;19925;-71
2022/04/07 00:55:14;;;;;;;;;;;;;;;8.01;100.00;94430.25;1031877;28;19922;-71
2022/04/07 00:55:45;;;;;;;;;;;;;;;7.98;100.00;94430.78;1035772;28;19921;-70
2022/04/07 00:56:15;;;;;;;;;;;;;;;7.96;100.00;94427.69;1035263;28;20339;-72
2022/04/07 00:56:48;;;;;;;;;;;;;;;7.93;100.00;94433.47;1030764;28;20430;-71
2022/04/07 00:57:19;;;;;;;;;;;;;;;7.89;100.00;94429.88;1026358;28;19989;-70
2022/04/07 00:57:49;;;;;;;;;;;;;;;7.88;100.00;94431.72;1023491;28;19958;-71
2022/04/07 00:58:19;;;;;;;;;;;;;;;7.88;100.00;94431.72;1025915;28;19922;-70
2022/04/07 00:58:50;;;;;;;;;;;;;;;7.90;100.00;94428.81;1023366;29;19929;-72
2022/04/07 00:59:20;;;;;;;;;;;;;;;7.88;100.00;94428.28;1023661;29;20128;-70
2022/04/07 00:59:50;;;;;;;;;;;;;;;7.85;100.00;94424.44;1034130;28;19956;-70
2022/04/07 01:00:20;;;;;;;;;;;;;;;7.85;100.00;94431.47;1035423;28;20389;-72
2022/04/07 01:00:51;;;;;;;;;;;;;;;7.84;100.00;94429.91;1039613;28;20330;-70
2022/04/07 01:01:23;;;;;;;;;;;;;;;7.83;100.00;94425.75;1043603;28;20366;-70
2022/04/07 01:01:53;;;;;;;;;;;;;;;7.83;100.00;94438.81;1035455;28;19914;-70
2022/04/07 01:02:23;;;;;;;;;;;;;;;7.85;100.00;94431.47;1031034;28;20471;-70
2022/04/07 01:02:53;;;;;;;;;;;;;;;7.86;100.00;94428.59;1031366;28;19984;-69
2022/04/07 01:03:24;;;;;;;;;;;;;;;7.83;100.00;94429.13;1031729;28;19918;-72
2022/04/07 01:03:55;;;;;;;;;;;;;;;7.83;100.00;94433.59;1035492;28;19917;-71
2022/04/07 01:04:25;;;;;;;;;;;;;;;7.83;100.00;94428.34;1035465;28;19953;-69
2022/04/07 01:04:57;;;;;;;;;;;;;;;7.81;100.00;94428.63;1035398;28;19930;-70
2022/04/07 01:05:27;;;;;;;;;;;;;;;7.79;100.00;94431.53;1034471;28;20374;-71
2022/04/07 01:05:59;;;;;;;;;;;;;;;7.79;100.00;94423.69;1035533;28;19922;-69
2022/04/07 01:06:31;;;;;;;;;;;;;;;7.80;100.00;94425.25;1035870;28;19925;-69
2022/04/07 01:07:01;;;;;;;;;;;;;;;7.83;100.00;94418.69;1033203;28;19917;-70
2022/04/07 01:07:36;;;;;;;;;;;;;;;7.87;100.00;94431.97;1035454;28;20342;-72
2022/04/07 01:08:06;;;;;;;;;;;;;;;7.86;100.00;94431.19;1035386;28;19928;-69
2022/04/07 01:08:37;;;;;;;;;;;;;;;7.88;100.00;94430.91;1037435;28;19913;-71
2022/04/07 01:09:07;;;;;;;;;;;;;;;7.88;100.00;94431.72;1038747;28;20645;-70
2022/04/07 01:09:37;;;;;;;;;;;;;;;7.86;100.00;94425.97;1037257;28;20032;-72
2022/04/07 01:10:08;;;;;;;;;;;;;;;7.89;100.00;94429.88;1039500;28;19978;-72
2022/04/07 01:10:38;;;;;;;;;;;;;;;7.86;100.00;94439.03;1035073;28;20300;-71
2022/04/07 01:11:09;;;;;;;;;;;;;;;7.88;100.00;94428.28;1035453;28;20617;-71
2022/04/07 01:11:39;;;;;;;;;;;;;;;7.92;100.00;94422.25;1035510;28;19991;-71
2022/04/07 01:12:10;;;;;;;;;;;;;;;7.89;100.00;94420.19;1027087;28;19952;-70
2022/04/07 01:12:40;;;;;;;;;;;;;;;7.93;100.00;94425.63;1029620;28;19933;-69
2022/04/07 01:13:11;;;;;;;;;;;;;;;8.00;100.00;94418.25;1031384;28;19921;-71
2022/04/07 01:13:49;;;;;;;;;;;;;;;7.99;100.00;94412.25;1024392;28;19922;-71
2022/04/07 01:14:20;;;;;;;;;;;;;;;7.97;100.00;94419.56;1031506;28;20702;-71
2022/04/07 01:15:00;;;;;;;;;;;;;;;7.95;100.00;94428.75;1031298;28;19930;-69
2022/04/07 01:15:30;;;;;;;;;;;;;;;7.90;100.00;94424.34;1027341;28;19918;-71
2022/04/07 01:16:00;;;;;;;;;;;;;;;7.88;100.00;94415.22;1029882;28;19969;-71
2022/04/07 01:16:31;;;;;;;;;;;;;;;7.88;100.00;94416.03;1024803;28;19966;-70
2022/04/07 01:17:01;;;;;;;;;;;;;;;7.91;100.00;94414.69;1018449;28;20025;-71
2022/04/07 01:17:32;;;;;;;;;;;;;;;7.91;100.00;94412.06;1027282;28;20363;-71
2022/04/07 01:18:03;;;;;;;;;;;;;;;7.89;100.00;94412.34;1023465;28;20013;-70
2022/04/07 01:18:33;;;;;;;;;;;;;;;7.87;100.00;94416.31;1019552;29;20400;-71
2022/04/07 01:19:04;;;;;;;;;;;;;;;7.86;100.00;94406.91;1020308;28;19929;-72
2022/04/07 01:19:34;;;;;;;;;;;;;;;7.83;100.00;94408.25;1027575;28;19969;-72
2022/04/07 01:20:05;;;;;;;;;;;;;;;7.85;100.00;94410.59;1031298;28;19921;-71
2022/04/07 01:20:35;;;;;;;;;;;;;;;7.83;100.00;94410.09;1037155;28;20032;-70
2022/04/07 01:21:06;;;;;;;;;;;;;;;7.79;100.00;94409.84;1035230;28;19925;-72
2022/04/07 01:21:37;;;;;;;;;;;;;;;7.78;100.00;94414.31;1027105;28;20004;-71
2022/04/07 01:22:07;;;;;;;;;;;;;;;7.78;100.00;94411.69;1027128;28;19918;-70
2022/04/07 01:22:41;;;;;;;;;;;;;;;7.83;100.00;94412.69;1028593;28;19914;-70
2022/04/07 01:23:11;;;;;;;;;;;;;;;7.79;100.00;94408.03;1032229;28;19937;-71
2022/04/07 01:23:43;;;;;;;;;;;;;;;7.83;100.00;94402.25;1030944;28;19963;-71
2022/04/07 01:24:14;;;;;;;;;;;;;;;7.81;100.00;94407.72;1035413;28;19910;-70
2022/04/07 01:24:44;;;;;;;;;;;;;;;7.75;100.00;94408.88;1031838;28;19918;-71
2022/04/07 01:25:17;;;;;;;;;;;;;;;7.76;100.00;94410.41;1023144;28;19974;-70
2022/04/07 01:25:49;;;;;;;;;;;;;;;7.74;100.00;94413.28;1025731;28;19914;-70
2022/04/07 01:26:19;;;;;;;;;;;;;;;7.72;100.00;94407.56;1027948;28;19917;-70
2022/04/07 01:26:49;;;;;;;;;;;;;;;7.70;100.00;94412.28;1031611;28;19917;-71
2022/04/07 01:27:20;;;;;;;;;;;;;;;7.66;100.00;94413.91;1035323;28;19914;-71
2022/04/07 01:27:50;;;;;;;;;;;;;;;7.73;100.00;94403.91;1031399;28;19914;-71
2022/04/07 01:28:25;;;;;;;;;;;;;;;7.72;100.00;94412.81;1031320;28;19906;-70
2022/04/07 01:28:55;;;;;;;;;;;;;;;7.72;100.00;94412.81;1031828;28;20454;-70
2022/04/07 01:29:26;;;;;;;;;;;;;;;7.71;100.00;94410.44;1035241;28;19960;-69
2022/04/07 01:29:57;;;;;;;;;;;;;;;7.69;100.00;94417.78;1035109;28;19980;-71
2022/04/07 01:30:28;;;;;;;;;;;;;;;7.73;100.00;94414.34;1031897;28;19918;-70
2022/04/07 01:30:58;;;;;;;;;;;;;;;7.75;100.00;94414.84;1039331;28;19940;-71
2022/04/07 01:31:28;;;;;;;;;;;;;;;7.78;100.00;94414.31;1035263;28;19921;-71
2022/04/07 01:31:59;;;;;;;;;;;;;;;7.82;100.00;94411.16;1035661;28;19921;-70
2022/04/07 01:32:39;;;;;;;;;;;;;;;7.85;100.00;94410.59;1034104;28;20290;-70
2022/04/07 01:33:12;;;;;;;;;;;;;;;7.84;100.00;94407.19;1036740;28;20272;-69
2022/04/07 01:33:42;;;;;;;;;;;;;;;7.86;100.00;94412.91;1039457;28;20326;-71
2022/04/07 01:34:13;;;;;;;;;;;;;;;7.84;100.00;94412.41;1032861;28;19953;-70
2022/04/07 01:34:44;;;;;;;;;;;;;;;7.84;100.00;94414.25;1031446;28;20373;-70
2022/04/07 01:35:14;;;;;;;;;;;;;;;7.82;100.00;94411.91;1031154;28;19987;-72
2022/04/07 01:35:45;;;;;;;;;;;;;;;7.84;100.00;94409.03;1031260;28;19973;-72
2022/04/07 01:36:17;;;;;;;;;;;;;;;7.84;100.00;94417.63;1039290;28;19921;-69
2022/04/07 01:36:49;;;;;;;;;;;;;;;7.84;100.00;94399.34;1038723;28;19921;-69
2022/04/07 01:37:19;;;;;;;;;;;;;;;7.89;100.00;94412.34;1035071;28;19921;-70
2022/04/07 01:37:49;;;;;;;;;;;;;;;7.89;100.00;94416.81;1030881;28;20446;-69
2022/04/07 01:38:20;;;;;;;;;;;;;;;7.86;100.00;94418.13;1031241;28;19917;-71
2022/04/07 01:38:50;;;;;;;;;;;;;;;7.88;100.00;94413.44;1027154;28;19978;-69
2022/04/07 01:39:24;;;;;;;;;;;;;;;7.86;100.00;94417.38;1031099;28;19918;-70
2022/04/07 01:39:54;;;;;;;;;;;;;;;7.85;100.00;94406.16;1031032;28;19918;-71
2022/04/07 01:40:28;;;;;;;;;;;;;;;7.87;100.00;94408.47;1027066;28;20271;-73
2022/04/07 01:40:59;;;;;;;;;;;;;;;7.90;100.00;94411.28;1027132;28;20371;-73
2022/04/07 01:41:29;;;;;;;;;;;;;;;7.92;100.00;94411.81;1024053;28;19962;-70
2022/04/07 01:41:59;;;;;;;;;;;;;;;7.92;100.00;94413.66;1028132;28;19918;-70
2022/04/07 01:42:31;;;;;;;;;;;;;;;7.91;100.00;94414.69;1035059;28;19968;-69
2022/04/07 01:43:01;;;;;;;;;;;;;;;7.93;100.00;94412.59;1027333;28;20388;-70
2022/04/07 01:43:31;;;;;;;;;;;;;;;7.95;100.00;94410.47;1027167;28;19922;-70
2022/04/07 01:44:02;;;;;;;;;;;;;;;7.93;100.00;94415.97;1027100;28;20627;-69
2022/04/07 01:44:32;;;;;;;;;;;;;;;7.91;100.00;94407.63;1027073;28;20053;-70
2022/04/07 01:45:03;;;;;;;;;;;;;;;7.91;100.00;94405.00;1027312;28;19981;-72
2022/04/07 01:45:33;;;;;;;;;;;;;;;7.89;100.00;94408.97;1027285;28;19918;-72
2022/04/07 01:46:04;;;;;;;;;;;;;;;7.85;100.00;94400.16;1025085;28;20316;-70
2022/04/07 01:46:34;;;;;;;;;;;;;;;7.84;100.00;94406.41;1023108;29;20352;-70
2022/04/07 01:47:05;;;;;;;;;;;;;;;7.87;100.00;94409.25;1022836;28;20791;-71
2022/04/07 01:47:36;;;;;;;;;;;;;;;7.87;100.00;94404.00;1031474;28;19953;-70
2022/04/07 01:48:06;;;;;;;;;;;;;;;7.84;100.00;94403.78;1039210;28;19917;-72
2022/04/07 01:48:37;;;;;;;;;;;;;;;7.84;100.00;94403.78;1039422;28;20529;-72
2022/04/07 01:49:07;;;;;;;;;;;;;;;7.82;100.00;94401.47;1039171;28;19967;-69
2022/04/07 01:49:37;;;;;;;;;;;;;;;7.84;100.00;94409.03;1039501;28;20016;-70
2022/04/07 01:50:08;;;;;;;;;;;;;;;7.88;100.00;94410.81;1035044;28;19917;-71
2022/04/07 01:50:39;;;;;;;;;;;;;;;7.88;100.00;94410.00;1035416;28;19913;-70
2022/04/07 01:51:10;;;;;;;;;;;;;;;7.85;100.00;94400.16;1035096;28;19917;-70
2022/04/07 01:51:40;;;;;;;;;;;;;;;7.88;100.00;94404.78;1035773;28;19921;-71
2022/04/07 01:52:11;;;;;;;;;;;;;;;7.87;100.00;94405.84;1039006;28;19917;-71
2022/04/07 01:52:42;;;;;;;;;;;;;;;7.89;100.00;94406.38;1035106;28;19917;-70
2022/04/07 01:53:12;;;;;;;;;;;;;;;7.85;100.00;94405.38;1027074;28;19922;-70
2022/04/07 01:53:42;;;;;;;;;;;;;;;7.78;100.00;94406.47;1023440;28;19922;-70
2022/04/07 01:54:13;;;;;;;;;;;;;;;7.82;100.00;94403.31;1022951;29;19941;-72
2022/04/07 01:54:43;;;;;;;;;;;;;;;7.82;100.00;94406.69;1019498;29;19929;-70
2022/04/07 01:55:15;;;;;;;;;;;;;;;7.83;100.00;94399.63;1019878;29;20451;-71
2022/04/07 01:55:47;;;;;;;;;;;;;;;7.86;100.00;94391.25;1027357;28;20351;-71
2022/04/07 01:56:18;;;;;;;;;;;;;;;7.86;100.00;94405.06;1027574;28;19918;-70
2022/04/07 01:56:48;;;;;;;;;;;;;;;7.82;100.00;94405.91;1035919;28;19967;-66
2022/04/07 01:57:23;;;;;;;;;;;;;;;7.83;100.00;94397.03;1040141;28;20376;-72
2022/04/07 01:57:53;;;;;;;;;;;;;;;7.83;100.00;94400.41;1036698;28;20020;-69
2022/04/07 01:58:23;;;;;;;;;;;;;;;7.87;100.00;94398.78;1035549;28;20004;-70
2022/04/07 01:58:54;;;;;;;;;;;;;;;7.85;100.00;94389.69;1035633;28;19944;-70
2022/04/07 01:59:25;;;;;;;;;;;;;;;7.80;100.00;94396.50;1036474;28;19918;-70
2022/04/07 01:59:56;;;;;;;;;;;;;;;7.81;100.00;94394.69;1035543;28;20382;-70
2022/04/07 02:00:27;;;;;;;;;;;;;;;7.77;100.00;94394.44;1032075;28;19918;-73
2022/04/07 02:00:57;;;;;;;;;;;;;;;7.75;100.00;94388.75;1036065;28;20357;-71
2022/04/07 02:01:27;;;;;;;;;;;;;;;7.73;100.00;94388.25;1036096;28;19928;-70
2022/04/07 02:01:57;;;;;;;;;;;;;;;7.86;100.00;94391.25;1040130;28;19920;-71
2022/04/07 02:02:28;;;;;;;;;;;;;;;7.84;100.00;94382.91;1039748;28;20542;-71
2022/04/07 02:02:58;;;;;;;;;;;;;;;7.85;100.00;94385.25;1035492;28;19929;-70
2022/04/07 02:03:31;;;;;;;;;;;;;;;7.85;100.00;94381.88;1035663;28;19952;-71
2022/04/07 02:04:02;;;;;;;;;;;;;;;7.82;100.00;94395.47;1031970;28;19913;-70
2022/04/07 02:04:32;;;;;;;;;;;;;;;7.82;100.00;94390.25;1031944;28;19921;-69
2022/04/07 02:05:09;;;;;;;;;;;;;;;7.84;100.00;94382.91;1035408;28;20019;-71
2022/04/07 02:05:39;;;;;;;;;;;;;;;7.86;100.00;94391.25;1028892;28;20610;-69
2022/04/07 02:06:13;;;;;;;;;;;;;;;7.83;100.00;94391.81;1031935;28;19953;-70
2022/04/07 02:06:43;;;;;;;;;;;;;;;7.85;100.00;94398.31;1028643;28;19918;-71
2022/04/07 02:07:14;;;;;;;;;;;;;;;7.84;100.00;94399.34;1031512;28;20303;-72
2022/04/07 02:07:44;;;;;;;;;;;;;;;7.81;100.00;94392.06;1035944;28;19921;-71
2022/04/07 02:08:14;;;;;;;;;;;;;;;7.89;100.00;94388.09;1035969;28;19972;-71
2022/04/07 02:08:45;;;;;;;;;;;;;;;7.88;100.00;94394.34;1037960;28;19917;-70
2022/04/07 02:09:15;;;;;;;;;;;;;;;7.87;100.00;94393.56;1039806;28;20488;-69
2022/04/07 02:09:45;;;;;;;;;;;;;;;7.89;100.00;94391.47;1035958;28;19969;-71
2022/04/07 02:10:19;;;;;;;;;;;;;;;7.94;100.00;94393.22;1031724;28;19914;-70
2022/04/07 02:10:49;;;;;;;;;;;;;;;7.88;100.00;94391.72;1031618;28;19996;-72
2022/04/07 02:11:22;;;;;;;;;;;;;;;7.87;100.00;94395.41;1032445;28;19917;-71
2022/04/07 02:11:52;;;;;;;;;;;;;;;7.86;100.00;94391.25;1031787;28;20363;-73
2022/04/07 02:12:23;;;;;;;;;;;;;;;7.82;100.00;94395.47;1032071;28;19918;-69
2022/04/07 02:12:53;;;;;;;;;;;;;;;7.80;100.00;94400.97;1035842;28;19951;-70
2022/04/07 02:13:24;;;;;;;;;;;;;;;7.77;100.00;94393.69;1032328;28;19906;-71
2022/04/07 02:13:55;;;;;;;;;;;;;;;7.74;100.00;94394.22;1038497;28;19928;-69
2022/04/07 02:14:25;;;;;;;;;;;;;;;7.74;100.00;94389.78;1035976;28;19909;-71
2022/04/07 02:14:59;;;;;;;;;;;;;;;7.78;100.00;94390.03;1031805;28;19974;-70
2022/04/07 02:15:29;;;;;;;;;;;;;;;7.74;100.00;94389.78;1029356;28;19969;-69
2022/04/07 02:16:01;;;;;;;;;;;;;;;7.71;100.00;94389.56;1032419;28;20314;-71
2022/04/07 02:16:31;;;;;;;;;;;;;;;7.69;100.00;94386.47;1027859;28;19917;-70
2022/04/07 02:17:01;;;;;;;;;;;;;;;7.66;100.00;94390.41;1027240;28;19922;-69
2022/04/07 02:17:32;;;;;;;;;;;;;;;7.75;100.00;94388.75;1031685;28;19925;-71
2022/04/07 02:18:02;;;;;;;;;;;;;;;7.82;100.00;94385.03;1027942;28;20278;-71
2022/04/07 02:18:33;;;;;;;;;;;;;;;7.78;100.00;94393.41;1031822;28;19921;-70
2022/04/07 02:19:03;;;;;;;;;;;;;;;7.73;100.00;94388.25;1034849;28;20338;-70
2022/04/07 02:19:33;;;;;;;;;;;;;;;7.75;100.00;94388.75;1027705;28;19911;-69
2022/04/07 02:20:04;;;;;;;;;;;;;;;7.74;100.00;94387.19;1027884;28;20461;-71
2022/04/07 02:20:35;;;;;;;;;;;;;;;7.75;100.00;94395.81;1027549;28;20061;-70
2022/04/07 02:21:05;;;;;;;;;;;;;;;7.74;100.00;94389.00;1024194;28;19923;-70
2022/04/07 02:21:36;;;;;;;;;;;;;;;7.80;100.00;94383.47;1032009;28;19910;-71
2022/04/07 02:22:06;;;;;;;;;;;;;;;7.81;100.00;94389.44;1035638;28;19917;-71
2022/04/07 02:22:37;;;;;;;;;;;;;;;7.83;100.00;94387.34;1035858;28;19914;-70
2022/04/07 02:23:07;;;;;;;;;;;;;;;7.85;100.00;94389.69;1035852;28;19920;-70
2022/04/07 02:23:42;;;;;;;;;;;;;;;7.90;100.00;94379.97;1035694;28;19914;-70
2022/04/07 02:24:12;;;;;;;;;;;;;;;7.91;100.00;94385.94;1039436;28;20524;-71
2022/04/07 02:24:42;;;;;;;;;;;;;;;7.90;100.00;94387.78;1031841;28;19914;-71
2022/04/07 02:25:13;;;;;;;;;;;;;;;7.89;100.00;94386.25;1027781;28;20393;-70
2022/04/07 02:25:43;;;;;;;;;;;;;;;7.90;100.00;94382.56;1027639;28;20426;-70
2022/04/07 02:26:16;;;;;;;;;;;;;;;7.95;100.00;94382.53;1027755;28;19919;-71
2022/04/07 02:26:47;;;;;;;;;;;;;;;7.95;100.00;94382.53;1023662;28;19918;-69
2022/04/07 02:27:17;;;;;;;;;;;;;;;8.00;100.00;94387.69;1028486;28;19926;-70
2022/04/07 02:27:47;;;;;;;;;;;;;;;8.00;100.00;94382.44;1032503;28;19956;-70
2022/04/07 02:28:18;;;;;;;;;;;;;;;8.00;100.00;94381.69;1035969;28;20449;-69
2022/04/07 02:28:48;;;;;;;;;;;;;;;7.99;100.00;94385.34;1039985;28;19917;-70
2022/04/07 02:29:18;;;;;;;;;;;;;;;7.97;100.00;94377.78;1035224;28;19910;-70
2022/04/07 02:29:49;;;;;;;;;;;;;;;8.00;100.00;94384.28;1031722;28;19918;-72
2022/04/07 02:30:19;;;;;;;;;;;;;;;8.00;100.00;94386.91;1031872;28;20318;-70
2022/04/07 02:30:49;;;;;;;;;;;;;;;8.00;100.00;94387.69;1031719;28;20574;-70
2022/04/07 02:31:20;;;;;;;;;;;;;;;7.97;100.00;94382.22;1035890;28;19956;-70
2022/04/07 02:31:50;;;;;;;;;;;;;;;7.95;100.00;94384.38;1039795;28;19996;-70
2022/04/07 02:32:20;;;;;;;;;;;;;;;7.90;100.00;94381.78;1039771;28;19975;-69
2022/04/07 02:32:50;;;;;;;;;;;;;;;7.89;100.00;94375.03;1035704;28;19916;-69
2022/04/07 02:33:21;;;;;;;;;;;;;;;7.92;100.00;94380.47;1031865;28;19917;-72
2022/04/07 02:33:51;;;;;;;;;;;;;;;7.96;100.00;94383.31;1031650;28;19914;-71
2022/04/07 02:34:21;;;;;;;;;;;;;;;8.03;100.00;94375.91;1031591;28;20386;-69
2022/04/07 02:34:52;;;;;;;;;;;;;;;7.96;100.00;94381.47;1035774;28;19917;-69
2022/04/07 02:35:23;;;;;;;;;;;;;;;7.93;100.00;94381.25;1035887;28;19937;-71
2022/04/07 02:35:53;;;;;;;;;;;;;;;7.92;100.00;94390.13;1031625;28;20272;-70
2022/04/07 02:36:23;;;;;;;;;;;;;;;7.89;100.00;94380.25;1035841;28;19987;-70
2022/04/07 02:36:54;;;;;;;;;;;;;;;7.97;100.00;94377.00;1035211;28;19932;-70
2022/04/07 02:37:25;;;;;;;;;;;;;;;7.96;100.00;94378.06;1035772;28;19957;-72
2022/04/07 02:38:01;;;;;;;;;;;;;;;7.96;100.00;94380.69;1039929;28;19913;-71
2022/04/07 02:38:34;;;;;;;;;;;;;;;7.89;100.00;94375.03;1035749;28;19918;-70
2022/04/07 02:39:04;;;;;;;;;;;;;;;7.88;100.00;94382.09;1033092;28;19949;-72
2022/04/07 02:39:35;;;;;;;;;;;;;;;7.85;100.00;94379.25;1027571;28;19910;-71
2022/04/07 02:40:05;;;;;;;;;;;;;;;7.82;100.00;94382.41;1027725;28;20343;-71
2022/04/07 02:40:36;;;;;;;;;;;;;;;7.87;100.00;94384.97;1023679;28;19922;-71
2022/04/07 02:41:06;;;;;;;;;;;;;;;7.87;100.00;94384.97;1030362;28;19918;-71